sensor_id;sensor_type;location;lat;lon;timestamp;P1;durP1;ratioP1;P2;durP2;ratioP2
18188;SDS011;9219;50.396;8.546;2023-05-10T00:01:13;0.80;;;0.70;;
18188;SDS011;9219;50.396;8.546;2023-05-10T00:03:40;26.47;;;2.60;;
18188;SDS011;9219;50.396;8.546;2023-05-10T00:06:09;7.10;;;1.77;;
18188;SDS011;9219;50.396;8.546;2023-05-10T00:08:37;7.57;;;1.63;;
18188;SDS011;9219;50.396;8.546;2023-05-10T00:11:19;8.20;;;1.73;;
18188;SDS011;9219;50.396;8.546;2023-05-10T00:13:50;25.50;;;2.93;;
18188;SDS011;9219;50.396;8.546;2023-05-10T00:16:18;141.97;;;11.10;;
18188;SDS011;9219;50.396;8.546;2023-05-10T00:18:45;84.10;;;8.20;;
18188;SDS011;9219;50.396;8.546;2023-05-10T00:21:15;1.73;;;1.50;;
18188;SDS011;9219;50.396;8.546;2023-05-10T00:23:42;103.93;;;7.83;;
18188;SDS011;9219;50.396;8.546;2023-05-10T00:26:10;2.77;;;1.27;;
18188;SDS011;9219;50.396;8.546;2023-05-10T00:33:57;268.03;;;18.93;;
18188;SDS011;9219;50.396;8.546;2023-05-10T00:36:24;0.80;;;0.60;;
18188;SDS011;9219;50.396;8.546;2023-05-10T00:38:51;2.93;;;0.90;;
18188;SDS011;9219;50.396;8.546;2023-05-10T00:41:18;0.40;;;0.40;;
18188;SDS011;9219;50.396;8.546;2023-05-10T00:43:46;0.50;;;0.50;;
18188;SDS011;9219;50.396;8.546;2023-05-10T00:46:14;0.60;;;0.53;;
18188;SDS011;9219;50.396;8.546;2023-05-10T00:48:41;0.70;;;0.50;;
18188;SDS011;9219;50.396;8.546;2023-05-10T00:51:10;0.47;;;0.40;;
18188;SDS011;9219;50.396;8.546;2023-05-10T00:53:53;1.33;;;0.70;;
18188;SDS011;9219;50.396;8.546;2023-05-10T00:56:21;0.83;;;0.60;;
18188;SDS011;9219;50.396;8.546;2023-05-10T00:58:50;0.80;;;0.60;;
18188;SDS011;9219;50.396;8.546;2023-05-10T01:01:17;0.80;;;0.60;;
18188;SDS011;9219;50.396;8.546;2023-05-10T01:03:46;0.63;;;0.63;;
18188;SDS011;9219;50.396;8.546;2023-05-10T01:06:14;0.67;;;0.67;;
18188;SDS011;9219;50.396;8.546;2023-05-10T01:08:41;4.07;;;1.00;;
18188;SDS011;9219;50.396;8.546;2023-05-10T01:13:51;56.33;;;4.27;;
18188;SDS011;9219;50.396;8.546;2023-05-10T01:16:22;2.70;;;1.20;;
18188;SDS011;9219;50.396;8.546;2023-05-10T01:18:51;124.53;;;9.50;;
18188;SDS011;9219;50.396;8.546;2023-05-10T01:21:21;10.87;;;1.80;;
18188;SDS011;9219;50.396;8.546;2023-05-10T01:38:21;8.07;;;1.40;;
18188;SDS011;9219;50.396;8.546;2023-05-10T01:40:59;1.37;;;1.03;;
18188;SDS011;9219;50.396;8.546;2023-05-10T01:43:36;2.47;;;0.80;;
18188;SDS011;9219;50.396;8.546;2023-05-10T01:46:17;45.73;;;4.60;;
18188;SDS011;9219;50.396;8.546;2023-05-10T01:48:51;5.10;;;1.37;;
18188;SDS011;9219;50.396;8.546;2023-05-10T01:51:21;2.13;;;1.40;;
18188;SDS011;9219;50.396;8.546;2023-05-10T01:53:54;4.63;;;1.20;;
18188;SDS011;9219;50.396;8.546;2023-05-10T02:01:30;12.10;;;3.47;;
18188;SDS011;9219;50.396;8.546;2023-05-10T02:04:00;4.23;;;2.77;;
18188;SDS011;9219;50.396;8.546;2023-05-10T02:06:28;2.60;;;2.13;;
18188;SDS011;9219;50.396;8.546;2023-05-10T02:08:58;3.43;;;2.20;;
18188;SDS011;9219;50.396;8.546;2023-05-10T02:11:28;5.27;;;2.60;;
18188;SDS011;9219;50.396;8.546;2023-05-10T02:13:57;2.57;;;1.93;;
18188;SDS011;9219;50.396;8.546;2023-05-10T02:16:26;3.80;;;2.90;;
18188;SDS011;9219;50.396;8.546;2023-05-10T02:18:58;5.13;;;3.13;;
18188;SDS011;9219;50.396;8.546;2023-05-10T02:26:32;9.03;;;4.23;;
18188;SDS011;9219;50.396;8.546;2023-05-10T02:29:01;4.37;;;3.00;;
18188;SDS011;9219;50.396;8.546;2023-05-10T02:31:29;3.57;;;2.57;;
18188;SDS011;9219;50.396;8.546;2023-05-10T02:33:58;3.30;;;2.63;;
18188;SDS011;9219;50.396;8.546;2023-05-10T02:36:27;3.77;;;2.83;;
18188;SDS011;9219;50.396;8.546;2023-05-10T02:38:55;3.37;;;2.20;;
18188;SDS011;9219;50.396;8.546;2023-05-10T02:41:25;5.57;;;3.73;;
18188;SDS011;9219;50.396;8.546;2023-05-10T02:48:54;3.13;;;2.50;;
18188;SDS011;9219;50.396;8.546;2023-05-10T02:51:23;4.53;;;3.37;;
18188;SDS011;9219;50.396;8.546;2023-05-10T02:53:52;6.80;;;2.47;;
18188;SDS011;9219;50.396;8.546;2023-05-10T02:56:22;4.50;;;3.10;;
18188;SDS011;9219;50.396;8.546;2023-05-10T02:58:52;4.03;;;3.10;;
18188;SDS011;9219;50.396;8.546;2023-05-10T03:01:19;5.80;;;3.20;;
18188;SDS011;9219;50.396;8.546;2023-05-10T03:03:46;5.90;;;3.03;;
18188;SDS011;9219;50.396;8.546;2023-05-10T03:09:01;4.60;;;3.50;;
18188;SDS011;9219;50.396;8.546;2023-05-10T03:11:32;5.63;;;4.00;;
18188;SDS011;9219;50.396;8.546;2023-05-10T03:14:12;5.60;;;3.97;;
18188;SDS011;9219;50.396;8.546;2023-05-10T03:16:50;5.27;;;4.63;;
18188;SDS011;9219;50.396;8.546;2023-05-10T03:19:24;5.37;;;4.10;;
18188;SDS011;9219;50.396;8.546;2023-05-10T03:21:56;3.90;;;3.03;;
18188;SDS011;9219;50.396;8.546;2023-05-10T03:24:31;4.03;;;3.00;;
18188;SDS011;9219;50.396;8.546;2023-05-10T03:32:06;4.07;;;3.13;;
18188;SDS011;9219;50.396;8.546;2023-05-10T03:34:33;4.07;;;3.23;;
18188;SDS011;9219;50.396;8.546;2023-05-10T03:37:07;5.67;;;4.30;;
18188;SDS011;9219;50.396;8.546;2023-05-10T03:39:35;5.07;;;4.13;;
18188;SDS011;9219;50.396;8.546;2023-05-10T03:42:03;6.73;;;4.77;;
18188;SDS011;9219;50.396;8.546;2023-05-10T03:44:30;6.63;;;4.53;;
18188;SDS011;9219;50.396;8.546;2023-05-10T03:46:59;9.13;;;4.97;;
18188;SDS011;9219;50.396;8.546;2023-05-10T03:54:32;8.57;;;4.47;;
18188;SDS011;9219;50.396;8.546;2023-05-10T03:57:00;5.07;;;4.20;;
18188;SDS011;9219;50.396;8.546;2023-05-10T03:59:28;10.80;;;4.07;;
18188;SDS011;9219;50.396;8.546;2023-05-10T04:01:55;4.80;;;3.37;;
18188;SDS011;9219;50.396;8.546;2023-05-10T04:04:23;5.27;;;3.90;;
18188;SDS011;9219;50.396;8.546;2023-05-10T04:06:50;8.77;;;4.57;;
18188;SDS011;9219;50.396;8.546;2023-05-10T04:09:17;6.97;;;4.10;;
18188;SDS011;9219;50.396;8.546;2023-05-10T04:15:01;14.27;;;5.17;;
18188;SDS011;9219;50.396;8.546;2023-05-10T04:17:29;8.03;;;5.17;;
18188;SDS011;9219;50.396;8.546;2023-05-10T04:19:57;7.10;;;4.73;;
18188;SDS011;9219;50.396;8.546;2023-05-10T04:22:24;17.53;;;6.17;;
18188;SDS011;9219;50.396;8.546;2023-05-10T04:24:51;10.40;;;5.23;;
18188;SDS011;9219;50.396;8.546;2023-05-10T04:27:18;12.23;;;5.63;;
18188;SDS011;9219;50.396;8.546;2023-05-10T04:29:45;8.07;;;4.57;;
18188;SDS011;9219;50.396;8.546;2023-05-10T04:37:55;7.03;;;3.60;;
18188;SDS011;9219;50.396;8.546;2023-05-10T04:40:24;4.80;;;3.17;;
18188;SDS011;9219;50.396;8.546;2023-05-10T04:42:52;5.03;;;3.67;;
18188;SDS011;9219;50.396;8.546;2023-05-10T04:45:20;4.17;;;2.57;;
18188;SDS011;9219;50.396;8.546;2023-05-10T04:47:47;4.97;;;3.70;;
18188;SDS011;9219;50.396;8.546;2023-05-10T04:50:14;3.50;;;2.50;;
18188;SDS011;9219;50.396;8.546;2023-05-10T04:55:44;3.30;;;2.83;;
18188;SDS011;9219;50.396;8.546;2023-05-10T04:58:12;2.63;;;1.30;;
18188;SDS011;9219;50.396;8.546;2023-05-10T05:00:40;1.60;;;1.30;;
18188;SDS011;9219;50.396;8.546;2023-05-10T05:03:08;0.90;;;0.90;;
18188;SDS011;9219;50.396;8.546;2023-05-10T05:05:35;1.07;;;0.97;;
18188;SDS011;9219;50.396;8.546;2023-05-10T05:08:02;0.93;;;0.80;;
18188;SDS011;9219;50.396;8.546;2023-05-10T05:10:30;2.43;;;0.63;;
18188;SDS011;9219;50.396;8.546;2023-05-10T05:19:03;1.37;;;0.80;;
18188;SDS011;9219;50.396;8.546;2023-05-10T05:21:30;0.67;;;0.63;;
18188;SDS011;9219;50.396;8.546;2023-05-10T05:23:58;0.70;;;0.70;;
18188;SDS011;9219;50.396;8.546;2023-05-10T05:26:26;3.37;;;0.80;;
18188;SDS011;9219;50.396;8.546;2023-05-10T05:28:53;0.83;;;0.70;;
18188;SDS011;9219;50.396;8.546;2023-05-10T05:31:20;4.90;;;1.00;;
18188;SDS011;9219;50.396;8.546;2023-05-10T05:33:47;0.70;;;0.50;;
18188;SDS011;9219;50.396;8.546;2023-05-10T05:41:46;0.93;;;0.80;;
18188;SDS011;9219;50.396;8.546;2023-05-10T05:44:13;0.87;;;0.83;;
18188;SDS011;9219;50.396;8.546;2023-05-10T05:46:41;18.00;;;2.83;;
18188;SDS011;9219;50.396;8.546;2023-05-10T05:49:08;3.47;;;1.17;;
18188;SDS011;9219;50.396;8.546;2023-05-10T05:51:35;1.37;;;0.97;;
18188;SDS011;9219;50.396;8.546;2023-05-10T05:54:02;1.77;;;0.70;;
18188;SDS011;9219;50.396;8.546;2023-05-10T05:56:31;0.90;;;0.90;;
18188;SDS011;9219;50.396;8.546;2023-05-10T05:59:10;1.03;;;0.80;;
18188;SDS011;9219;50.396;8.546;2023-05-10T06:01:39;1.13;;;1.00;;
18188;SDS011;9219;50.396;8.546;2023-05-10T06:04:06;3.57;;;1.17;;
18188;SDS011;9219;50.396;8.546;2023-05-10T06:06:33;1.30;;;1.10;;
18188;SDS011;9219;50.396;8.546;2023-05-10T06:09:00;7.43;;;2.17;;
18188;SDS011;9219;50.396;8.546;2023-05-10T06:11:28;1.73;;;1.30;;
18188;SDS011;9219;50.396;8.546;2023-05-10T06:13:57;2.77;;;1.60;;
18188;SDS011;9219;50.396;8.546;2023-05-10T06:16:28;3.30;;;2.03;;
18188;SDS011;9219;50.396;8.546;2023-05-10T06:19:22;17.10;;;3.67;;
18188;SDS011;9219;50.396;8.546;2023-05-10T06:21:50;46.87;;;5.67;;
18188;SDS011;9219;50.396;8.546;2023-05-10T06:24:19;113.00;;;11.43;;
18188;SDS011;9219;50.396;8.546;2023-05-10T06:26:46;158.63;;;16.10;;
18188;SDS011;9219;50.396;8.546;2023-05-10T06:29:15;172.43;;;15.70;;
18188;SDS011;9219;50.396;8.546;2023-05-10T06:31:43;10.07;;;4.77;;
18188;SDS011;9219;50.396;8.546;2023-05-10T06:34:10;27.70;;;5.93;;
18188;SDS011;9219;50.396;8.546;2023-05-10T06:36:39;5.70;;;3.37;;
18188;SDS011;9219;50.396;8.546;2023-05-10T06:44:11;4.90;;;1.97;;
18188;SDS011;9219;50.396;8.546;2023-05-10T06:46:39;4.90;;;2.40;;
18188;SDS011;9219;50.396;8.546;2023-05-10T06:49:08;2.17;;;1.40;;
18188;SDS011;9219;50.396;8.546;2023-05-10T06:51:37;3.00;;;1.80;;
18188;SDS011;9219;50.396;8.546;2023-05-10T06:54:07;3.33;;;2.03;;
18188;SDS011;9219;50.396;8.546;2023-05-10T06:56:34;4.13;;;2.70;;
18188;SDS011;9219;50.396;8.546;2023-05-10T06:59:01;4.97;;;3.20;;
18188;SDS011;9219;50.396;8.546;2023-05-10T07:04:10;11.03;;;5.67;;
18188;SDS011;9219;50.396;8.546;2023-05-10T07:06:38;9.30;;;5.57;;
18188;SDS011;9219;50.396;8.546;2023-05-10T07:09:05;10.50;;;6.10;;
18188;SDS011;9219;50.396;8.546;2023-05-10T07:11:33;12.30;;;6.10;;
18188;SDS011;9219;50.396;8.546;2023-05-10T07:14:00;10.23;;;5.50;;
18188;SDS011;9219;50.396;8.546;2023-05-10T07:16:28;13.70;;;6.43;;
18188;SDS011;9219;50.396;8.546;2023-05-10T07:18:58;14.87;;;6.07;;
18188;SDS011;9219;50.396;8.546;2023-05-10T07:21:26;13.50;;;5.83;;
18188;SDS011;9219;50.396;8.546;2023-05-10T07:28:59;11.73;;;6.77;;
18188;SDS011;9219;50.396;8.546;2023-05-10T07:31:29;11.57;;;7.37;;
18188;SDS011;9219;50.396;8.546;2023-05-10T07:33:58;15.93;;;7.83;;
18188;SDS011;9219;50.396;8.546;2023-05-10T07:36:26;12.47;;;6.53;;
18188;SDS011;9219;50.396;8.546;2023-05-10T07:38:53;11.77;;;6.50;;
18188;SDS011;9219;50.396;8.546;2023-05-10T07:41:20;12.13;;;6.80;;
18188;SDS011;9219;50.396;8.546;2023-05-10T07:43:48;12.77;;;7.27;;
18188;SDS011;9219;50.396;8.546;2023-05-10T07:46:16;11.40;;;7.03;;
18188;SDS011;9219;50.396;8.546;2023-05-10T07:53:45;13.13;;;7.07;;
18188;SDS011;9219;50.396;8.546;2023-05-10T07:56:22;13.20;;;7.47;;
18188;SDS011;9219;50.396;8.546;2023-05-10T07:58:52;10.93;;;6.83;;
18188;SDS011;9219;50.396;8.546;2023-05-10T08:01:20;12.63;;;6.57;;
18188;SDS011;9219;50.396;8.546;2023-05-10T08:03:47;9.10;;;5.23;;
18188;SDS011;9219;50.396;8.546;2023-05-10T08:06:17;13.50;;;6.30;;
18188;SDS011;9219;50.396;8.546;2023-05-10T08:08:46;13.43;;;6.93;;
18188;SDS011;9219;50.396;8.546;2023-05-10T08:11:16;7.20;;;5.27;;
18188;SDS011;9219;50.396;8.546;2023-05-10T08:14:16;11.30;;;5.73;;
18188;SDS011;9219;50.396;8.546;2023-05-10T08:16:43;9.23;;;5.13;;
18188;SDS011;9219;50.396;8.546;2023-05-10T08:19:10;5.13;;;4.20;;
18188;SDS011;9219;50.396;8.546;2023-05-10T08:21:38;10.30;;;3.83;;
18188;SDS011;9219;50.396;8.546;2023-05-10T08:24:06;5.43;;;3.83;;
18188;SDS011;9219;50.396;8.546;2023-05-10T08:26:33;6.27;;;4.07;;
18188;SDS011;9219;50.396;8.546;2023-05-10T08:29:00;6.80;;;4.07;;
18188;SDS011;9219;50.396;8.546;2023-05-10T08:31:29;6.80;;;4.13;;
18188;SDS011;9219;50.396;8.546;2023-05-10T08:39:02;6.30;;;3.27;;
18188;SDS011;9219;50.396;8.546;2023-05-10T08:41:36;5.17;;;3.43;;
18188;SDS011;9219;50.396;8.546;2023-05-10T08:44:06;7.10;;;4.10;;
18188;SDS011;9219;50.396;8.546;2023-05-10T08:46:34;6.37;;;4.57;;
18188;SDS011;9219;50.396;8.546;2023-05-10T08:49:06;7.67;;;4.80;;
18188;SDS011;9219;50.396;8.546;2023-05-10T08:51:36;11.23;;;5.23;;
18188;SDS011;9219;50.396;8.546;2023-05-10T08:54:09;8.43;;;5.20;;
18188;SDS011;9219;50.396;8.546;2023-05-10T08:59:16;8.27;;;5.93;;
18188;SDS011;9219;50.396;8.546;2023-05-10T09:01:44;7.47;;;4.07;;
18188;SDS011;9219;50.396;8.546;2023-05-10T09:04:12;7.47;;;3.77;;
18188;SDS011;9219;50.396;8.546;2023-05-10T09:06:40;7.17;;;5.17;;
18188;SDS011;9219;50.396;8.546;2023-05-10T09:09:08;6.30;;;3.60;;
18188;SDS011;9219;50.396;8.546;2023-05-10T09:11:35;8.87;;;4.70;;
18188;SDS011;9219;50.396;8.546;2023-05-10T09:14:03;10.20;;;4.60;;
18188;SDS011;9219;50.396;8.546;2023-05-10T09:16:33;9.73;;;4.90;;
18188;SDS011;9219;50.396;8.546;2023-05-10T09:23:33;12.73;;;5.07;;
18188;SDS011;9219;50.396;8.546;2023-05-10T09:26:03;6.07;;;4.53;;
18188;SDS011;9219;50.396;8.546;2023-05-10T09:28:32;6.50;;;3.93;;
18188;SDS011;9219;50.396;8.546;2023-05-10T09:31:16;6.43;;;4.27;;
18188;SDS011;9219;50.396;8.546;2023-05-10T09:33:44;8.83;;;3.67;;
18188;SDS011;9219;50.396;8.546;2023-05-10T09:36:13;5.40;;;3.10;;
18188;SDS011;9219;50.396;8.546;2023-05-10T09:38:48;3.67;;;3.27;;
18188;SDS011;9219;50.396;8.546;2023-05-10T09:44:11;4.43;;;2.57;;
18188;SDS011;9219;50.396;8.546;2023-05-10T09:46:39;3.03;;;2.00;;
18188;SDS011;9219;50.396;8.546;2023-05-10T09:49:06;3.30;;;2.30;;
18188;SDS011;9219;50.396;8.546;2023-05-10T09:51:34;4.67;;;2.13;;
18188;SDS011;9219;50.396;8.546;2023-05-10T09:54:09;2.93;;;1.50;;
18188;SDS011;9219;50.396;8.546;2023-05-10T09:56:36;2.13;;;1.90;;
18188;SDS011;9219;50.396;8.546;2023-05-10T09:59:06;9.43;;;2.37;;
18188;SDS011;9219;50.396;8.546;2023-05-10T10:01:38;9.27;;;2.17;;
18188;SDS011;9219;50.396;8.546;2023-05-10T10:04:25;5.10;;;3.03;;
18188;SDS011;9219;50.396;8.546;2023-05-10T10:07:00;5.37;;;2.47;;
18188;SDS011;9219;50.396;8.546;2023-05-10T10:09:29;5.10;;;1.97;;
18188;SDS011;9219;50.396;8.546;2023-05-10T10:11:56;4.60;;;3.10;;
18188;SDS011;9219;50.396;8.546;2023-05-10T10:14:24;2.27;;;1.97;;
18188;SDS011;9219;50.396;8.546;2023-05-10T10:16:52;6.27;;;1.83;;
18188;SDS011;9219;50.396;8.546;2023-05-10T10:19:33;5.33;;;2.03;;
18188;SDS011;9219;50.396;8.546;2023-05-10T10:24:42;8.17;;;2.53;;
18188;SDS011;9219;50.396;8.546;2023-05-10T10:27:15;7.83;;;2.57;;
18188;SDS011;9219;50.396;8.546;2023-05-10T10:29:52;5.07;;;2.67;;
18188;SDS011;9219;50.396;8.546;2023-05-10T10:32:30;6.63;;;2.57;;
18188;SDS011;9219;50.396;8.546;2023-05-10T10:35:09;1.60;;;1.50;;
18188;SDS011;9219;50.396;8.546;2023-05-10T10:37:44;9.50;;;2.33;;
18188;SDS011;9219;50.396;8.546;2023-05-10T10:40:34;2.03;;;1.77;;
18188;SDS011;9219;50.396;8.546;2023-05-10T10:48:32;3.80;;;2.60;;
18188;SDS011;9219;50.396;8.546;2023-05-10T10:51:05;6.87;;;2.87;;
18188;SDS011;9219;50.396;8.546;2023-05-10T10:53:38;5.27;;;2.57;;
18188;SDS011;9219;50.396;8.546;2023-05-10T10:56:07;6.77;;;2.67;;
18188;SDS011;9219;50.396;8.546;2023-05-10T10:58:36;7.90;;;1.90;;
18188;SDS011;9219;50.396;8.546;2023-05-10T11:01:11;2.90;;;1.47;;
18188;SDS011;9219;50.396;8.546;2023-05-10T11:03:54;2.47;;;1.93;;
18188;SDS011;9219;50.396;8.546;2023-05-10T11:11:23;2.77;;;1.67;;
18188;SDS011;9219;50.396;8.546;2023-05-10T11:13:51;3.83;;;1.80;;
18188;SDS011;9219;50.396;8.546;2023-05-10T11:16:19;1.47;;;1.33;;
18188;SDS011;9219;50.396;8.546;2023-05-10T11:18:54;2.37;;;1.83;;
18188;SDS011;9219;50.396;8.546;2023-05-10T11:21:25;4.30;;;1.70;;
18188;SDS011;9219;50.396;8.546;2023-05-10T11:23:53;2.83;;;1.43;;
18188;SDS011;9219;50.396;8.546;2023-05-10T11:26:23;2.30;;;1.47;;
18188;SDS011;9219;50.396;8.546;2023-05-10T11:33:57;3.43;;;1.97;;
18188;SDS011;9219;50.396;8.546;2023-05-10T11:36:28;4.50;;;1.87;;
18188;SDS011;9219;50.396;8.546;2023-05-10T11:39:00;4.63;;;1.87;;
18188;SDS011;9219;50.396;8.546;2023-05-10T11:41:29;1.20;;;1.07;;
18188;SDS011;9219;50.396;8.546;2023-05-10T11:43:58;2.93;;;1.30;;
18188;SDS011;9219;50.396;8.546;2023-05-10T11:46:26;19.23;;;1.60;;
18188;SDS011;9219;50.396;8.546;2023-05-10T11:48:58;2.20;;;1.00;;
18188;SDS011;9219;50.396;8.546;2023-05-10T11:54:54;14.30;;;2.03;;
18188;SDS011;9219;50.396;8.546;2023-05-10T11:57:25;1.67;;;0.87;;
18188;SDS011;9219;50.396;8.546;2023-05-10T11:59:54;3.43;;;0.93;;
18188;SDS011;9219;50.396;8.546;2023-05-10T12:02:23;1.60;;;1.00;;
18188;SDS011;9219;50.396;8.546;2023-05-10T12:04:51;3.20;;;0.90;;
18188;SDS011;9219;50.396;8.546;2023-05-10T12:07:19;8.63;;;1.00;;
18188;SDS011;9219;50.396;8.546;2023-05-10T12:17:47;3.33;;;0.93;;
18188;SDS011;9219;50.396;8.546;2023-05-10T12:20:16;2.37;;;1.10;;
18188;SDS011;9219;50.396;8.546;2023-05-10T12:22:46;3.50;;;1.17;;
18188;SDS011;9219;50.396;8.546;2023-05-10T12:25:14;3.67;;;0.77;;
18188;SDS011;9219;50.396;8.546;2023-05-10T12:27:50;4.80;;;1.07;;
18188;SDS011;9219;50.396;8.546;2023-05-10T12:30:19;3.63;;;0.90;;
18188;SDS011;9219;50.396;8.546;2023-05-10T12:32:49;1.80;;;0.83;;
18188;SDS011;9219;50.396;8.546;2023-05-10T12:37:56;4.80;;;1.40;;
18188;SDS011;9219;50.396;8.546;2023-05-10T12:40:24;0.67;;;0.67;;
18188;SDS011;9219;50.396;8.546;2023-05-10T12:42:51;2.90;;;0.90;;
18188;SDS011;9219;50.396;8.546;2023-05-10T12:45:19;2.20;;;0.80;;
18188;SDS011;9219;50.396;8.546;2023-05-10T12:47:47;0.97;;;0.60;;
18188;SDS011;9219;50.396;8.546;2023-05-10T12:50:15;0.77;;;0.60;;
18188;SDS011;9219;50.396;8.546;2023-05-10T12:52:43;4.23;;;0.50;;
18188;SDS011;9219;50.396;8.546;2023-05-10T13:00:09;0.70;;;0.60;;
18188;SDS011;9219;50.396;8.546;2023-05-10T13:02:37;1.30;;;0.77;;
18188;SDS011;9219;50.396;8.546;2023-05-10T13:05:05;1.57;;;0.73;;
18188;SDS011;9219;50.396;8.546;2023-05-10T13:07:33;2.63;;;0.47;;
18188;SDS011;9219;50.396;8.546;2023-05-10T13:10:00;11.63;;;0.80;;
18188;SDS011;9219;50.396;8.546;2023-05-10T13:12:28;0.30;;;0.30;;
18188;SDS011;9219;50.396;8.546;2023-05-10T13:14:55;1.37;;;0.93;;
18188;SDS011;9219;50.396;8.546;2023-05-10T13:20:06;1.60;;;0.67;;
18188;SDS011;9219;50.396;8.546;2023-05-10T13:22:35;0.57;;;0.50;;
18188;SDS011;9219;50.396;8.546;2023-05-10T13:25:06;0.50;;;0.50;;
18188;SDS011;9219;50.396;8.546;2023-05-10T13:27:34;0.90;;;0.60;;
18188;SDS011;9219;50.396;8.546;2023-05-10T13:30:01;1.70;;;0.40;;
18188;SDS011;9219;50.396;8.546;2023-05-10T13:32:30;2.57;;;0.63;;
18188;SDS011;9219;50.396;8.546;2023-05-10T13:34:58;0.40;;;0.40;;
18188;SDS011;9219;50.396;8.546;2023-05-10T13:37:29;2.00;;;0.50;;
18188;SDS011;9219;50.396;8.546;2023-05-10T13:40:09;0.40;;;0.40;;
18188;SDS011;9219;50.396;8.546;2023-05-10T13:42:38;1.73;;;0.50;;
18188;SDS011;9219;50.396;8.546;2023-05-10T13:45:05;4.10;;;0.70;;
18188;SDS011;9219;50.396;8.546;2023-05-10T13:47:34;3.80;;;1.00;;
18188;SDS011;9219;50.396;8.546;2023-05-10T13:50:01;2.97;;;0.77;;
18188;SDS011;9219;50.396;8.546;2023-05-10T13:52:30;0.43;;;0.43;;
18188;SDS011;9219;50.396;8.546;2023-05-10T13:55:01;1.63;;;0.60;;
18188;SDS011;9219;50.396;8.546;2023-05-10T14:00:15;2.17;;;0.50;;
18188;SDS011;9219;50.396;8.546;2023-05-10T14:02:43;10.57;;;0.83;;
18188;SDS011;9219;50.396;8.546;2023-05-10T14:05:11;1.67;;;0.60;;
18188;SDS011;9219;50.396;8.546;2023-05-10T14:07:39;2.30;;;0.60;;
18188;SDS011;9219;50.396;8.546;2023-05-10T14:10:07;3.20;;;0.60;;
18188;SDS011;9219;50.396;8.546;2023-05-10T14:12:34;4.00;;;0.80;;
18188;SDS011;9219;50.396;8.546;2023-05-10T14:15:02;0.60;;;0.60;;
18188;SDS011;9219;50.396;8.546;2023-05-10T14:20:12;0.50;;;0.50;;
18188;SDS011;9219;50.396;8.546;2023-05-10T14:22:39;0.63;;;0.50;;
18188;SDS011;9219;50.396;8.546;2023-05-10T14:25:07;8.63;;;0.90;;
18188;SDS011;9219;50.396;8.546;2023-05-10T14:27:35;1.97;;;0.60;;
18188;SDS011;9219;50.396;8.546;2023-05-10T14:30:04;5.60;;;0.90;;
18188;SDS011;9219;50.396;8.546;2023-05-10T14:32:35;0.60;;;0.40;;
18188;SDS011;9219;50.396;8.546;2023-05-10T14:35:03;1.60;;;1.13;;
18188;SDS011;9219;50.396;8.546;2023-05-10T14:40:35;4.07;;;0.90;;
18188;SDS011;9219;50.396;8.546;2023-05-10T14:43:02;3.33;;;1.13;;
18188;SDS011;9219;50.396;8.546;2023-05-10T14:45:30;2.17;;;0.60;;
18188;SDS011;9219;50.396;8.546;2023-05-10T14:47:59;2.20;;;0.60;;
18188;SDS011;9219;50.396;8.546;2023-05-10T14:50:30;1.40;;;0.67;;
18188;SDS011;9219;50.396;8.546;2023-05-10T14:53:02;0.67;;;0.67;;
18188;SDS011;9219;50.396;8.546;2023-05-10T14:55:31;1.00;;;0.90;;
18188;SDS011;9219;50.396;8.546;2023-05-10T15:00:47;2.67;;;0.50;;
18188;SDS011;9219;50.396;8.546;2023-05-10T15:03:15;1.43;;;0.70;;
18188;SDS011;9219;50.396;8.546;2023-05-10T15:05:43;1.97;;;0.80;;
18188;SDS011;9219;50.396;8.546;2023-05-10T15:08:10;2.50;;;0.83;;
18188;SDS011;9219;50.396;8.546;2023-05-10T15:10:40;1.37;;;0.70;;
18188;SDS011;9219;50.396;8.546;2023-05-10T15:13:08;3.23;;;0.80;;
18188;SDS011;9219;50.396;8.546;2023-05-10T15:15:35;0.70;;;0.60;;
18188;SDS011;9219;50.396;8.546;2023-05-10T15:22:58;2.30;;;0.97;;
18188;SDS011;9219;50.396;8.546;2023-05-10T15:25:26;3.27;;;0.70;;
18188;SDS011;9219;50.396;8.546;2023-05-10T15:27:54;0.97;;;0.80;;
18188;SDS011;9219;50.396;8.546;2023-05-10T15:30:22;1.37;;;0.80;;
18188;SDS011;9219;50.396;8.546;2023-05-10T15:32:50;3.47;;;0.83;;
18188;SDS011;9219;50.396;8.546;2023-05-10T15:35:17;4.63;;;0.60;;
18188;SDS011;9219;50.396;8.546;2023-05-10T15:37:47;0.50;;;0.50;;
18188;SDS011;9219;50.396;8.546;2023-05-10T15:42:56;0.40;;;0.40;;
18188;SDS011;9219;50.396;8.546;2023-05-10T15:45:24;0.40;;;0.40;;
18188;SDS011;9219;50.396;8.546;2023-05-10T15:47:52;2.33;;;0.90;;
18188;SDS011;9219;50.396;8.546;2023-05-10T15:50:20;4.13;;;0.53;;
18188;SDS011;9219;50.396;8.546;2023-05-10T15:52:48;1.50;;;0.60;;
18188;SDS011;9219;50.396;8.546;2023-05-10T15:55:15;0.60;;;0.60;;
18188;SDS011;9219;50.396;8.546;2023-05-10T15:57:43;0.80;;;0.80;;
18188;SDS011;9219;50.396;8.546;2023-05-10T16:02:51;0.50;;;0.50;;
18188;SDS011;9219;50.396;8.546;2023-05-10T16:05:19;1.23;;;1.13;;
18188;SDS011;9219;50.396;8.546;2023-05-10T16:07:47;0.60;;;0.60;;
18188;SDS011;9219;50.396;8.546;2023-05-10T16:10:15;1.43;;;0.70;;
18188;SDS011;9219;50.396;8.546;2023-05-10T16:12:44;0.70;;;0.50;;
18188;SDS011;9219;50.396;8.546;2023-05-10T16:15:12;2.73;;;0.73;;
18188;SDS011;9219;50.396;8.546;2023-05-10T16:17:39;3.60;;;0.70;;
18188;SDS011;9219;50.396;8.546;2023-05-10T16:20:10;0.70;;;0.70;;
18188;SDS011;9219;50.396;8.546;2023-05-10T16:27:42;0.83;;;0.70;;
18188;SDS011;9219;50.396;8.546;2023-05-10T16:30:10;3.10;;;0.80;;
18188;SDS011;9219;50.396;8.546;2023-05-10T16:32:38;0.40;;;0.40;;
18188;SDS011;9219;50.396;8.546;2023-05-10T16:35:06;1.07;;;0.77;;
18188;SDS011;9219;50.396;8.546;2023-05-10T16:37:34;2.13;;;0.67;;
18188;SDS011;9219;50.396;8.546;2023-05-10T16:40:02;0.60;;;0.50;;
18188;SDS011;9219;50.396;8.546;2023-05-10T16:42:31;2.30;;;0.60;;
18188;SDS011;9219;50.396;8.546;2023-05-10T16:47:53;2.10;;;0.83;;
18188;SDS011;9219;50.396;8.546;2023-05-10T16:50:21;0.90;;;0.77;;
18188;SDS011;9219;50.396;8.546;2023-05-10T16:52:50;1.00;;;1.00;;
18188;SDS011;9219;50.396;8.546;2023-05-10T16:55:18;2.53;;;0.70;;
18188;SDS011;9219;50.396;8.546;2023-05-10T16:57:46;5.27;;;0.90;;
18188;SDS011;9219;50.396;8.546;2023-05-10T17:00:15;1.50;;;0.87;;
18188;SDS011;9219;50.396;8.546;2023-05-10T17:02:43;1.63;;;0.67;;
18188;SDS011;9219;50.396;8.546;2023-05-10T17:07:53;1.27;;;0.60;;
18188;SDS011;9219;50.396;8.546;2023-05-10T17:10:20;0.97;;;0.70;;
18188;SDS011;9219;50.396;8.546;2023-05-10T17:12:48;3.90;;;0.80;;
18188;SDS011;9219;50.396;8.546;2023-05-10T17:15:17;3.07;;;0.90;;
18188;SDS011;9219;50.396;8.546;2023-05-10T17:17:45;0.90;;;0.70;;
18188;SDS011;9219;50.396;8.546;2023-05-10T17:20:13;3.90;;;0.73;;
18188;SDS011;9219;50.396;8.546;2023-05-10T17:22:40;0.57;;;0.53;;
18188;SDS011;9219;50.396;8.546;2023-05-10T17:32:06;0.67;;;0.67;;
18188;SDS011;9219;50.396;8.546;2023-05-10T17:34:35;2.20;;;0.90;;
18188;SDS011;9219;50.396;8.546;2023-05-10T17:37:03;3.20;;;0.73;;
18188;SDS011;9219;50.396;8.546;2023-05-10T17:39:31;1.83;;;0.80;;
18188;SDS011;9219;50.396;8.546;2023-05-10T17:42:00;1.37;;;0.70;;
18188;SDS011;9219;50.396;8.546;2023-05-10T17:44:29;3.80;;;0.90;;
18188;SDS011;9219;50.396;8.546;2023-05-10T17:46:56;1.40;;;0.70;;
18188;SDS011;9219;50.396;8.546;2023-05-10T17:52:34;0.97;;;0.87;;
18188;SDS011;9219;50.396;8.546;2023-05-10T17:55:01;1.40;;;0.80;;
18188;SDS011;9219;50.396;8.546;2023-05-10T17:57:28;1.07;;;0.70;;
18188;SDS011;9219;50.396;8.546;2023-05-10T17:59:56;1.33;;;0.97;;
18188;SDS011;9219;50.396;8.546;2023-05-10T18:02:24;1.03;;;0.80;;
18188;SDS011;9219;50.396;8.546;2023-05-10T18:04:52;2.43;;;0.70;;
18188;SDS011;9219;50.396;8.546;2023-05-10T18:07:23;0.50;;;0.50;;
18188;SDS011;9219;50.396;8.546;2023-05-10T18:17:17;0.97;;;0.90;;
18188;SDS011;9219;50.396;8.546;2023-05-10T18:19:46;0.57;;;0.57;;
18188;SDS011;9219;50.396;8.546;2023-05-10T18:22:14;0.80;;;0.73;;
18188;SDS011;9219;50.396;8.546;2023-05-10T18:24:46;3.47;;;0.90;;
18188;SDS011;9219;50.396;8.546;2023-05-10T18:27:16;3.47;;;0.90;;